Terminal Aerodrome Forecast
Issued by NWS

Home | Current Version | Previous Version | Text Only | Print | Product List | Glossary On
Versions: 1 2 3 4 5 6 7 8 9 10 11 12 13 14 15 16 17 18
000
FTUS45 KRIW 240520
TAFPNA
TAF
KPNA 240520Z 2406/2506 30007KT P6SM VCSH BKN035
     FM241000 VRB05KT P6SM VCSH SCT008 BKN022
     FM241600 VRB04KT P6SM BKN050
     FM250000 VRB04KT P6SM SKC
      AMD LTD TO CLD VIS AND WIND=

USA.gov is the U.S. government's official web portal to all federal, state and local government web resources and services.